createdAt,value
2018-03-07T00:00:16.480Z,98321.61
2018-03-07T00:01:19.011Z,98325.31
2018-03-07T00:02:21.552Z,98329.44
2018-03-07T00:03:24.066Z,98332.03
2018-03-07T00:04:26.612Z,98329.86
2018-03-07T00:05:29.110Z,98337.30
2018-03-07T00:06:31.648Z,98328.66
2018-03-07T00:07:34.191Z,98331.41
2018-03-07T00:08:36.706Z,98330.61
2018-03-07T00:09:39.220Z,98333.17
2018-03-07T00:10:41.743Z,98335.53
2018-03-07T00:11:44.279Z,98336.52
2018-03-07T00:12:46.812Z,98328.45
2018-03-07T00:13:49.340Z,98330.41
2018-03-07T00:14:51.872Z,98331.80
2018-03-07T00:15:54.416Z,98337.09
2018-03-07T00:16:56.935Z,98329.63
2018-03-07T00:17:59.476Z,98331.20
2018-03-07T00:19:02.008Z,98331.59
2018-03-07T00:20:04.563Z,98329.62
2018-03-07T00:21:07.070Z,98334.53
2018-03-07T00:22:09.578Z,98334.53
2018-03-07T00:23:12.109Z,98334.14
2018-03-07T00:24:14.713Z,98330.20
2018-03-07T00:25:17.227Z,98335.71
2018-03-07T00:26:19.772Z,98330.41
2018-03-07T00:27:22.278Z,98340.83
2018-03-07T00:28:24.810Z,98334.15
2018-03-07T00:29:27.327Z,98339.86
2018-03-07T00:30:29.852Z,98336.91
2018-03-07T00:31:32.362Z,98334.74
2018-03-07T00:32:34.888Z,98333.37
2018-03-07T00:33:37.432Z,98338.09
2018-03-07T00:34:39.956Z,98335.14
2018-03-07T00:35:42.480Z,98333.77
2018-03-07T00:36:45.000Z,98340.25
2018-03-07T00:37:47.506Z,98335.18
2018-03-07T00:38:50.034Z,98334.78
2018-03-07T00:39:52.568Z,98331.44
2018-03-07T00:40:55.078Z,98332.63
2018-03-07T00:41:57.600Z,98335.58
2018-03-07T00:43:00.121Z,98327.91
2018-03-07T00:44:02.650Z,98330.08
2018-03-07T00:45:05.153Z,98327.52
2018-03-07T00:46:07.658Z,98333.81
2018-03-07T00:47:10.170Z,98334.20
2018-03-07T00:48:12.678Z,98332.04
2018-03-07T00:49:15.216Z,98335.98
2018-03-07T00:50:17.743Z,98339.13
2018-03-07T00:51:20.246Z,98335.38
2018-03-07T00:52:22.789Z,98333.02
2018-03-07T00:53:25.323Z,98331.44
2018-03-07T00:54:27.867Z,98333.80
2018-03-07T00:55:30.408Z,98334.78
2018-03-07T00:56:32.913Z,98327.67
2018-03-07T00:57:35.440Z,98330.42
2018-03-07T00:58:38.299Z,98330.27
2018-03-07T00:59:40.844Z,98332.42
2018-03-07T01:00:43.368Z,98331.84
2018-03-07T01:01:45.891Z,98331.02
2018-03-07T01:02:48.430Z,98338.28
2018-03-07T01:03:50.956Z,98333.37
2018-03-07T01:04:53.513Z,98340.05
2018-03-07T01:05:56.021Z,98338.28
2018-03-07T01:06:58.567Z,98337.69
2018-03-07T01:08:01.088Z,98338.46
2018-03-07T01:09:03.612Z,98336.09
2018-03-07T01:10:06.143Z,98329.99
2018-03-07T01:11:08.668Z,98336.48
2018-03-07T01:12:11.214Z,98332.95
2018-03-07T01:13:13.720Z,98337.47
2018-03-07T01:14:16.230Z,98329.02
2018-03-07T01:15:18.772Z,98328.23
2018-03-07T01:16:21.296Z,98328.44
2018-03-07T01:17:23.816Z,98325.09
2018-03-07T01:18:26.337Z,98321.95
2018-03-07T01:19:28.860Z,98323.91
2018-03-07T01:20:31.393Z,98327.06
2018-03-07T01:21:33.916Z,98319.78
2018-03-07T01:22:36.449Z,98319.77
2018-03-07T01:23:38.972Z,98323.51
2018-03-07T01:24:41.488Z,98325.47
2018-03-07T01:25:44.018Z,98329.02
2018-03-07T01:26:46.544Z,98330.98
2018-03-07T01:27:49.062Z,98331.18
2018-03-07T01:28:51.566Z,98328.42
2018-03-07T01:29:54.070Z,98328.62
2018-03-07T01:30:56.598Z,98331.37
2018-03-07T01:31:59.131Z,98331.95
2018-03-07T01:33:01.678Z,98330.58
2018-03-07T01:34:04.199Z,98329.59
2018-03-07T01:35:06.732Z,98328.61
2018-03-07T01:36:09.357Z,98324.48
2018-03-07T01:37:11.869Z,98321.33
2018-03-07T01:38:14.386Z,98327.42
2018-03-07T01:39:16.911Z,98320.34
2018-03-07T01:40:19.449Z,98319.17
2018-03-07T01:41:21.976Z,98319.96
2018-03-07T01:42:24.502Z,98315.63
2018-03-07T01:43:27.017Z,98323.09
2018-03-07T01:44:29.562Z,98323.69
2018-03-07T01:45:32.087Z,98323.69
2018-03-07T01:46:34.606Z,98325.05
2018-03-07T01:47:37.124Z,98321.51
2018-03-07T01:48:39.664Z,98319.91
2018-03-07T01:49:42.193Z,98320.48
2018-03-07T01:50:44.705Z,98321.86
2018-03-07T01:51:59.065Z,98320.68
2018-03-07T01:53:01.579Z,98322.25
2018-03-07T01:54:04.090Z,98321.66
2018-03-07T01:55:06.620Z,98318.51
2018-03-07T01:56:09.178Z,98323.62
2018-03-07T01:57:11.691Z,98323.41
2018-03-07T01:58:14.206Z,98323.61
2018-03-07T01:59:16.727Z,98322.23
2018-03-07T02:00:19.236Z,98319.48
2018-03-07T02:01:21.780Z,98320.66
2018-03-07T02:02:24.336Z,98315.73
2018-03-07T02:03:26.838Z,98322.62
2018-03-07T02:04:29.350Z,98315.73
2018-03-07T02:05:31.862Z,98322.22
2018-03-07T02:06:34.405Z,98312.59
2018-03-07T02:07:36.913Z,98315.53
2018-03-07T02:08:39.448Z,98322.61
2018-03-07T02:09:41.984Z,98321.63
2018-03-07T02:10:44.503Z,98319.66
2018-03-07T02:11:47.038Z,98321.04
2018-03-07T02:12:49.565Z,98323.79
2018-03-07T02:13:52.084Z,98326.54
2018-03-07T02:14:54.605Z,98317.89
2018-03-07T02:15:57.132Z,98324.19
2018-03-07T02:16:59.677Z,98323.20
2018-03-07T02:18:02.214Z,98324.19
2018-03-07T02:19:04.735Z,98322.81
2018-03-07T02:20:07.242Z,98319.86
2018-03-07T02:21:09.772Z,98323.59
2018-03-07T02:22:12.302Z,98325.16
2018-03-07T02:23:14.814Z,98324.19
2018-03-07T02:24:17.325Z,98322.41
2018-03-07T02:25:19.852Z,98320.45
2018-03-07T02:26:22.372Z,98319.66
2018-03-07T02:27:24.914Z,98319.27
2018-03-07T02:28:27.447Z,98317.91
2018-03-07T02:29:29.978Z,98322.03
2018-03-07T02:30:32.513Z,98324.97
2018-03-07T02:31:35.056Z,98322.22
2018-03-07T02:32:37.583Z,98324.00
2018-03-07T02:33:40.102Z,98327.15
2018-03-07T02:34:42.628Z,98327.34
2018-03-07T02:35:45.157Z,98328.15
2018-03-07T02:36:47.684Z,98327.38
2018-03-07T02:37:50.211Z,98331.73
2018-03-07T02:38:52.717Z,98326.63
2018-03-07T02:39:55.240Z,98329.18
2018-03-07T02:40:57.760Z,98328.59
2018-03-07T02:42:00.280Z,98326.03
2018-03-07T02:43:02.810Z,98322.49
2018-03-07T02:44:05.350Z,98333.70
2018-03-07T02:45:07.859Z,98320.73
2018-03-07T02:46:10.408Z,98326.03
2018-03-07T02:47:12.944Z,98322.66
2018-03-07T02:48:15.462Z,98321.08
2018-03-07T02:49:17.989Z,98316.75
2018-03-07T02:50:20.513Z,98324.41
2018-03-07T02:51:23.045Z,98318.11
2018-03-07T02:52:25.574Z,98321.05
2018-03-07T02:53:28.094Z,98319.47
2018-03-07T02:54:30.608Z,98320.05
2018-03-07T02:55:33.119Z,98324.37
2018-03-07T02:56:35.688Z,98320.03
2018-03-07T02:57:38.218Z,98320.03
2018-03-07T02:58:40.742Z,98320.38
2018-03-07T02:59:43.254Z,98324.70
2018-03-07T03:00:45.761Z,98325.28
2018-03-07T03:01:48.267Z,98326.66
2018-03-07T03:02:50.812Z,98321.75
2018-03-07T03:03:53.341Z,98323.91
2018-03-07T03:04:55.867Z,98330.39
2018-03-07T03:05:58.388Z,98328.22
2018-03-07T03:07:00.903Z,98321.53
2018-03-07T03:08:03.439Z,98322.52
2018-03-07T03:09:05.965Z,98321.73
2018-03-07T03:10:08.470Z,98323.69
2018-03-07T03:11:10.974Z,98326.05
2018-03-07T03:12:13.509Z,98323.30
2018-03-07T03:13:16.046Z,98326.44
2018-03-07T03:14:18.559Z,98325.25
2018-03-07T03:15:21.084Z,98325.84
2018-03-07T03:16:23.589Z,98323.48
2018-03-07T03:17:26.116Z,98334.48
2018-03-07T03:18:28.662Z,98329.58
2018-03-07T03:19:31.184Z,98333.89
2018-03-07T03:20:33.708Z,98326.81
2018-03-07T03:21:36.215Z,98329.56
2018-03-07T03:22:38.721Z,98328.77
2018-03-07T03:23:41.266Z,98324.84
2018-03-07T03:24:43.779Z,98326.41
2018-03-07T03:25:46.304Z,98327.39
2018-03-07T03:26:48.851Z,98327.97
2018-03-07T03:27:51.362Z,98334.45
2018-03-07T03:28:53.894Z,98327.97
2018-03-07T03:29:56.409Z,98329.14
2018-03-07T03:30:58.920Z,98327.38
2018-03-07T03:32:01.484Z,98328.94
2018-03-07T03:33:04.001Z,98331.46
2018-03-07T03:34:06.547Z,98325.56
2018-03-07T03:35:09.054Z,98328.31
2018-03-07T03:36:11.579Z,98331.66
2018-03-07T03:37:14.082Z,98327.72
2018-03-07T03:38:16.612Z,98332.23
2018-03-07T03:39:19.156Z,98318.47
2018-03-07T03:40:21.681Z,98329.87
2018-03-07T03:41:24.198Z,98325.54
2018-03-07T03:42:26.701Z,98331.05
2018-03-07T03:43:29.223Z,98328.88
2018-03-07T03:44:31.763Z,98333.00
2018-03-07T03:45:34.266Z,98328.09
2018-03-07T03:46:36.773Z,98333.20
2018-03-07T03:47:39.300Z,98332.41
2018-03-07T03:48:41.823Z,98335.16
2018-03-07T03:49:44.364Z,98336.53
2018-03-07T03:50:46.874Z,98336.14
2018-03-07T03:51:49.382Z,98337.52
2018-03-07T03:52:51.894Z,98342.62
2018-03-07T03:53:54.397Z,98339.87
2018-03-07T03:54:56.940Z,98343.02
2018-03-07T03:55:59.446Z,98341.64
2018-03-07T03:57:01.967Z,98339.08
2018-03-07T03:58:04.552Z,98339.47
2018-03-07T03:59:07.065Z,98342.81
2018-03-07T04:00:09.593Z,98341.83
2018-03-07T04:01:12.112Z,98337.89
2018-03-07T04:02:14.632Z,98336.71
2018-03-07T04:03:17.181Z,98340.25
2018-03-07T04:04:19.702Z,98339.46
2018-03-07T04:05:22.234Z,98339.06
2018-03-07T04:06:24.775Z,98340.84
2018-03-07T04:07:27.278Z,98337.30
2018-03-07T04:08:29.799Z,98341.04
2018-03-07T04:09:32.327Z,98340.84
2018-03-07T04:10:34.868Z,98339.47
2018-03-07T04:11:37.396Z,98339.28
2018-03-07T04:12:39.920Z,98336.14
2018-03-07T04:13:42.440Z,98347.92
2018-03-07T04:14:44.950Z,98343.61
2018-03-07T04:15:47.470Z,98343.22
2018-03-07T04:16:49.993Z,98342.42
2018-03-07T04:17:52.512Z,98346.16
2018-03-07T04:18:55.043Z,98344.39
2018-03-07T04:19:57.571Z,98347.33
2018-03-07T04:21:00.119Z,98345.56
2018-03-07T04:22:02.644Z,98346.14
2018-03-07T04:23:05.164Z,98343.78
2018-03-07T04:24:07.670Z,98339.05
2018-03-07T04:25:10.204Z,98345.53
2018-03-07T04:26:12.715Z,98343.95
2018-03-07T04:27:15.225Z,98340.22
2018-03-07T04:28:17.752Z,98347.50
2018-03-07T04:29:20.258Z,98346.70
2018-03-07T04:30:22.765Z,98349.64
2018-03-07T04:31:25.282Z,98342.38
2018-03-07T04:32:27.786Z,98346.50
2018-03-07T04:33:30.290Z,98348.27
2018-03-07T04:34:32.796Z,98349.45
2018-03-07T04:35:35.316Z,98346.31
2018-03-07T04:36:37.874Z,98349.84
2018-03-07T04:37:40.399Z,98345.73
2018-03-07T04:38:42.901Z,98346.91
2018-03-07T04:39:45.410Z,98348.68
2018-03-07T04:40:47.913Z,98352.41
2018-03-07T04:41:50.438Z,98354.77
2018-03-07T04:42:53.027Z,98355.16
2018-03-07T04:43:55.542Z,98354.38
2018-03-07T04:44:58.068Z,98353.59
2018-03-07T04:46:00.604Z,98356.34
2018-03-07T04:47:03.110Z,98356.14
2018-03-07T04:48:05.643Z,98354.58
2018-03-07T04:49:08.162Z,98351.22
2018-03-07T04:50:10.665Z,98349.84
2018-03-07T04:51:13.204Z,98354.56
2018-03-07T04:52:15.715Z,98349.84
2018-03-07T04:53:18.238Z,98352.79
2018-03-07T04:54:20.742Z,98348.66
2018-03-07T04:55:23.249Z,98342.77
2018-03-07T04:56:25.769Z,98344.14
2018-03-07T04:57:28.293Z,98343.16
2018-03-07T04:58:30.816Z,98348.86
2018-03-07T04:59:33.355Z,98346.11
2018-03-07T05:00:35.872Z,98350.23
2018-03-07T05:01:38.421Z,98350.23
2018-03-07T05:02:40.997Z,98344.35
2018-03-07T05:03:43.497Z,98342.39
2018-03-07T05:04:46.010Z,98357.72
2018-03-07T05:05:48.536Z,98352.81
2018-03-07T05:06:51.083Z,98361.46
2018-03-07T05:07:53.599Z,98358.12
2018-03-07T05:08:56.127Z,98355.77
2018-03-07T05:09:58.648Z,98353.02
2018-03-07T05:11:01.166Z,98351.44
2018-03-07T05:12:03.716Z,98353.01
2018-03-07T05:13:06.248Z,98347.51
2018-03-07T05:14:08.772Z,98353.98
2018-03-07T05:15:11.276Z,98353.39
2018-03-07T05:16:13.827Z,98343.17
2018-03-07T05:17:16.376Z,98343.58
2018-03-07T05:18:18.906Z,98341.99
2018-03-07T05:19:21.441Z,98342.58
2018-03-07T05:20:23.964Z,98341.59
2018-03-07T05:21:26.470Z,98336.86
2018-03-07T05:22:29.005Z,98339.37
2018-03-07T05:23:31.517Z,98341.15
2018-03-07T05:24:34.101Z,98344.92
2018-03-07T05:25:36.613Z,98349.05
2018-03-07T05:26:39.137Z,98351.41
2018-03-07T05:27:41.684Z,98353.72
2018-03-07T05:28:44.209Z,98358.42
2018-03-07T05:29:46.732Z,98355.86
2018-03-07T05:30:49.419Z,98362.73
2018-03-07T05:31:51.934Z,98364.11
2018-03-07T05:32:54.481Z,98359.98
2018-03-07T05:33:56.999Z,98367.64
2018-03-07T05:34:59.513Z,98364.88
2018-03-07T05:36:02.026Z,98364.48
2018-03-07T05:37:04.538Z,98364.67
2018-03-07T05:38:07.084Z,98372.53
2018-03-07T05:39:09.594Z,98370.56
2018-03-07T05:40:12.120Z,98371.55
2018-03-07T05:41:14.632Z,98368.80
2018-03-07T05:42:17.153Z,98368.02
2018-03-07T05:43:19.776Z,98368.83
2018-03-07T05:44:22.337Z,98366.08
2018-03-07T05:45:24.868Z,98361.16
2018-03-07T05:46:27.408Z,98361.55
2018-03-07T05:47:29.918Z,98360.58
2018-03-07T05:48:32.462Z,98360.97
2018-03-07T05:49:34.984Z,98363.53
2018-03-07T05:50:37.490Z,98361.57
2018-03-07T05:51:40.010Z,98368.84
2018-03-07T05:52:42.525Z,98369.63
2018-03-07T05:53:45.057Z,98358.42
2018-03-07T05:54:47.565Z,98366.28
2018-03-07T05:55:50.112Z,98368.43
2018-03-07T05:56:52.626Z,98366.67
2018-03-07T05:57:55.146Z,98369.03
2018-03-07T05:58:57.682Z,98370.78
2018-03-07T06:00:00.204Z,98374.33
2018-03-07T06:01:02.717Z,98369.60
2018-03-07T06:02:05.243Z,98370.00
2018-03-07T06:03:07.772Z,98365.48
2018-03-07T06:04:10.439Z,98363.70
2018-03-07T06:05:12.953Z,98367.81
2018-03-07T06:06:15.496Z,98371.92
2018-03-07T06:07:18.015Z,98376.05
2018-03-07T06:08:20.597Z,98372.70
2018-03-07T06:09:23.146Z,98372.86
2018-03-07T06:10:25.668Z,98365.44
2018-03-07T06:11:28.288Z,98371.67
2018-03-07T06:12:30.882Z,98366.58
2018-03-07T06:13:33.483Z,98357.93
2018-03-07T06:14:36.022Z,98360.34
2018-03-07T06:15:38.534Z,98354.27
2018-03-07T06:16:41.042Z,98357.80
2018-03-07T06:17:43.549Z,98359.77
2018-03-07T06:18:46.204Z,98355.85
2018-03-07T06:19:48.751Z,98360.97
2018-03-07T06:20:51.271Z,98358.61
2018-03-07T06:21:53.785Z,98362.75
2018-03-07T06:22:56.447Z,98365.95
2018-03-07T06:23:59.270Z,98362.36
2018-03-07T06:25:02.316Z,98362.34
2018-03-07T06:26:04.940Z,98366.66
2018-03-07T06:27:07.691Z,98363.70
2018-03-07T06:28:10.462Z,98366.45
2018-03-07T06:29:13.520Z,98364.47
2018-03-07T06:30:17.770Z,98369.97
2018-03-07T06:31:21.048Z,98369.00
2018-03-07T06:32:24.272Z,98370.00
2018-03-07T06:33:27.468Z,98373.12
2018-03-07T06:34:30.351Z,98369.98
2018-03-07T06:35:33.041Z,98370.39
2018-03-07T06:36:35.603Z,98372.17
2018-03-07T06:37:38.252Z,98371.59
2018-03-07T06:38:40.936Z,98373.34
2018-03-07T06:39:43.510Z,98371.77
2018-03-07T06:40:46.163Z,98371.38
2018-03-07T06:41:48.708Z,98374.91
2018-03-07T06:42:51.250Z,98378.84
2018-03-07T06:43:54.604Z,98377.47
2018-03-07T06:44:57.477Z,98376.69
2018-03-07T06:46:00.036Z,98382.65
2018-03-07T06:47:02.567Z,98382.27
2018-03-07T06:48:05.082Z,98387.20
2018-03-07T06:49:07.854Z,98376.98
2018-03-07T06:50:10.386Z,98381.31
2018-03-07T06:51:13.034Z,98384.66
2018-03-07T06:52:15.572Z,98386.44
2018-03-07T06:53:18.164Z,98385.63
2018-03-07T06:54:20.674Z,98391.12
2018-03-07T06:55:23.200Z,98393.27
2018-03-07T06:56:25.714Z,98395.02
2018-03-07T06:57:28.246Z,98394.81
2018-03-07T06:58:30.800Z,98389.67
2018-03-07T06:59:33.321Z,98391.03
2018-03-07T07:00:35.848Z,98389.05
2018-03-07T07:01:38.357Z,98386.29
2018-03-07T07:02:40.875Z,98388.44
2018-03-07T07:03:43.415Z,98391.17
2018-03-07T07:04:45.938Z,98399.22
2018-03-07T07:05:48.456Z,98403.69
2018-03-07T07:06:50.980Z,98403.88
2018-03-07T07:07:53.528Z,98414.28
2018-03-07T07:08:56.152Z,98412.70
2018-03-07T07:09:58.667Z,98419.77
2018-03-07T07:11:01.174Z,98421.30
2018-03-07T07:12:03.696Z,98425.22
2018-03-07T07:13:06.230Z,98423.63
2018-03-07T07:14:08.738Z,98423.23
2018-03-07T07:15:11.246Z,98433.05
2018-03-07T07:16:13.936Z,98423.03
2018-03-07T07:17:17.334Z,98423.02
2018-03-07T07:18:19.973Z,98422.43
2018-03-07T07:19:22.776Z,98425.77
2018-03-07T07:20:25.515Z,98426.34
2018-03-07T07:21:28.038Z,98421.83
2018-03-07T07:22:30.641Z,98426.54
2018-03-07T07:23:33.386Z,98427.14
2018-03-07T07:24:36.152Z,98424.58
2018-03-07T07:25:38.897Z,98427.33
2018-03-07T07:26:41.512Z,98421.44
2018-03-07T07:27:44.196Z,98420.06
2018-03-07T07:28:46.778Z,98420.64
2018-03-07T07:29:49.970Z,98421.44
2018-03-07T07:30:53.097Z,98424.00
2018-03-07T07:31:55.695Z,98418.10
2018-03-07T07:32:58.245Z,98423.20
2018-03-07T07:34:01.294Z,98436.95
2018-03-07T07:35:03.824Z,98435.19
2018-03-07T07:36:06.678Z,98430.08
2018-03-07T07:37:09.210Z,98433.62
2018-03-07T07:38:11.828Z,98433.22
2018-03-07T07:39:14.356Z,98436.77
2018-03-07T07:40:16.862Z,98433.62
2018-03-07T07:41:19.391Z,98433.43
2018-03-07T07:42:21.950Z,98435.20
2018-03-07T07:43:24.478Z,98433.23
2018-03-07T07:44:26.999Z,98436.38
2018-03-07T07:45:29.509Z,98436.78
2018-03-07T07:46:32.030Z,98436.98
2018-03-07T07:47:34.533Z,98441.50
2018-03-07T07:48:37.329Z,98441.90
2018-03-07T07:49:39.865Z,98441.31
2018-03-07T07:50:42.440Z,98442.30
2018-03-07T07:51:44.925Z,98446.02
2018-03-07T07:52:47.438Z,98445.83
2018-03-07T07:53:49.981Z,98450.35
2018-03-07T07:54:52.486Z,98447.81
2018-03-07T07:55:55.022Z,98453.31
2018-03-07T07:56:57.548Z,98457.86
2018-03-07T07:58:00.062Z,98454.92
2018-03-07T07:59:02.610Z,98461.61
2018-03-07T08:00:05.138Z,98457.30
2018-03-07T08:01:07.670Z,98467.70
2018-03-07T08:02:10.173Z,98468.29
2018-03-07T08:03:12.697Z,98469.87
2018-03-07T08:04:15.225Z,98472.43
2018-03-07T08:05:17.738Z,98473.22
2018-03-07T08:06:20.300Z,98465.75
2018-03-07T08:07:22.820Z,98467.91
2018-03-07T08:08:25.326Z,98469.87
2018-03-07T08:09:27.864Z,98470.08
2018-03-07T08:10:30.400Z,98466.34
2018-03-07T08:11:32.953Z,98470.23
2018-03-07T08:12:35.503Z,98470.91
2018-03-07T08:13:38.057Z,98471.76
2018-03-07T08:14:40.613Z,98471.85
2018-03-07T08:15:43.150Z,98471.34
2018-03-07T08:16:45.752Z,98471.08
2018-03-07T08:17:48.267Z,98471.96
2018-03-07T08:18:50.807Z,98464.42
2018-03-07T08:19:53.364Z,98473.77
2018-03-07T08:20:55.900Z,98470.36
2018-03-07T08:21:58.422Z,98471.88
2018-03-07T08:23:00.956Z,98471.61
2018-03-07T08:24:03.488Z,98466.36
2018-03-07T08:25:06.022Z,98472.55
2018-03-07T08:26:08.567Z,98474.79
2018-03-07T08:27:11.086Z,98476.48
2018-03-07T08:28:13.623Z,98474.09
2018-03-07T08:29:16.152Z,98468.67
2018-03-07T08:30:18.710Z,98470.00
2018-03-07T08:31:21.226Z,98480.73
2018-03-07T08:32:23.764Z,98477.63
2018-03-07T08:33:26.281Z,98479.63
2018-03-07T08:34:28.795Z,98481.60
2018-03-07T08:35:31.321Z,98480.02
2018-03-07T08:36:33.842Z,98477.89
2018-03-07T08:37:36.358Z,98479.11
2018-03-07T08:38:39.847Z,98480.05
2018-03-07T08:39:42.459Z,98476.03
2018-03-07T08:40:45.143Z,98487.22
2018-03-07T08:41:47.844Z,98482.31
2018-03-07T08:42:50.448Z,98481.80
2018-03-07T08:43:53.106Z,98487.86
2018-03-07T08:44:55.782Z,98486.91
2018-03-07T08:45:58.451Z,98483.63
2018-03-07T08:47:01.128Z,98491.19
2018-03-07T08:48:03.779Z,98481.02
2018-03-07T08:49:06.427Z,98489.70
2018-03-07T08:50:09.006Z,98481.78
2018-03-07T08:51:11.613Z,98491.30
2018-03-07T08:52:14.130Z,98482.92
2018-03-07T08:53:16.659Z,98486.17
2018-03-07T08:54:19.204Z,98490.55
2018-03-07T08:55:21.730Z,98492.06
2018-03-07T08:56:24.271Z,98495.30
2018-03-07T08:57:26.811Z,98497.46
2018-03-07T08:58:29.365Z,98487.88
2018-03-07T08:59:31.907Z,98489.28
2018-03-07T09:00:34.453Z,98488.97
2018-03-07T09:01:36.998Z,98495.33
2018-03-07T09:02:39.534Z,98488.34
2018-03-07T09:03:42.081Z,98491.69
2018-03-07T09:04:44.628Z,98498.94
2018-03-07T09:05:47.148Z,98493.48
2018-03-07T09:06:49.674Z,98492.73
2018-03-07T09:07:52.207Z,98492.09
2018-03-07T09:08:54.743Z,98500.73
2018-03-07T09:09:57.274Z,98500.73
2018-03-07T09:10:59.799Z,98493.27
2018-03-07T09:12:02.340Z,98503.23
2018-03-07T09:13:04.866Z,98499.91
2018-03-07T09:14:07.389Z,98499.12
2018-03-07T09:15:09.922Z,98500.88
2018-03-07T09:16:12.469Z,98503.47
2018-03-07T09:17:15.000Z,98506.25
2018-03-07T09:18:17.530Z,98505.88
2018-03-07T09:19:20.084Z,98501.63
2018-03-07T09:20:22.633Z,98504.66
2018-03-07T09:21:25.180Z,98510.84
2018-03-07T09:22:27.721Z,98507.23
2018-03-07T09:23:30.245Z,98511.28
2018-03-07T09:24:32.802Z,98512.11
2018-03-07T09:25:35.336Z,98507.39
2018-03-07T09:26:37.864Z,98508.14
2018-03-07T09:27:40.390Z,98511.75
2018-03-07T09:28:42.925Z,98515.39
2018-03-07T09:29:45.455Z,98516.96
2018-03-07T09:30:48.005Z,98519.23
2018-03-07T09:31:50.549Z,98521.91
2018-03-07T09:32:53.091Z,98524.39
2018-03-07T09:33:55.616Z,98523.94
2018-03-07T09:34:58.166Z,98516.97
2018-03-07T09:36:00.705Z,98520.23
2018-03-07T09:37:03.216Z,98523.07
2018-03-07T09:38:05.843Z,98523.93
2018-03-07T09:39:08.365Z,98517.31
2018-03-07T09:40:10.877Z,98518.75
2018-03-07T09:41:13.444Z,98528.05
2018-03-07T09:42:15.978Z,98526.70
2018-03-07T09:43:18.516Z,98525.58
2018-03-07T09:44:21.063Z,98525.61
2018-03-07T09:45:23.600Z,98529.75
2018-03-07T09:46:26.123Z,98528.02
2018-03-07T09:47:28.706Z,98533.31
2018-03-07T09:48:31.247Z,98528.44
2018-03-07T09:49:33.782Z,98531.40
2018-03-07T09:50:36.357Z,98533.56
2018-03-07T09:51:38.886Z,98530.05
2018-03-07T09:52:41.401Z,98532.25
2018-03-07T09:53:43.942Z,98534.05
2018-03-07T09:54:46.476Z,98534.45
2018-03-07T09:55:49.177Z,98532.09
2018-03-07T09:56:51.705Z,98538.19
2018-03-07T09:57:54.227Z,98532.52
2018-03-07T09:59:04.865Z,98537.61
2018-03-07T10:00:07.390Z,98535.27
2018-03-07T10:01:09.901Z,98530.97
2018-03-07T10:02:12.418Z,98537.83
2018-03-07T10:04:48.830Z,98540.59
2018-03-07T10:09:26.218Z,98544.28
2018-03-07T10:10:40.297Z,98544.77
2018-03-07T10:11:43.545Z,98548.14
2018-03-07T10:12:53.514Z,98547.20
2018-03-07T10:16:35.846Z,98547.53
2018-03-07T10:17:42.297Z,98549.91
2018-03-07T10:20:26.949Z,98554.05
2018-03-07T10:21:35.612Z,98549.95
2018-03-07T10:25:30.251Z,98555.30
2018-03-07T10:26:57.103Z,98547.84
2018-03-07T10:27:59.789Z,98553.73
2018-03-07T10:29:02.325Z,98554.53
2018-03-07T10:30:04.889Z,98556.69
2018-03-07T10:31:07.422Z,98557.88
2018-03-07T10:32:10.127Z,98559.25
2018-03-07T10:33:18.231Z,98561.81
2018-03-07T10:34:20.779Z,98559.25
2018-03-07T10:35:23.346Z,98561.81
2018-03-07T10:36:25.871Z,98565.75
2018-03-07T10:37:28.408Z,98559.28
2018-03-07T10:38:30.949Z,98561.63
2018-03-07T10:39:33.461Z,98570.26
2018-03-07T10:40:36.008Z,98568.09
2018-03-07T10:41:38.532Z,98564.19
2018-03-07T10:42:41.043Z,98565.75
2018-03-07T10:43:43.545Z,98563.80
2018-03-07T10:44:46.058Z,98565.56
2018-03-07T10:45:48.605Z,98565.16
2018-03-07T10:46:51.122Z,98564.19
2018-03-07T10:47:53.649Z,98567.57
2018-03-07T10:48:56.162Z,98571.30
2018-03-07T10:49:58.688Z,98571.69
2018-03-07T10:51:01.236Z,98570.31
2018-03-07T10:52:03.747Z,98563.85
2018-03-07T10:53:06.274Z,98568.77
2018-03-07T10:54:08.782Z,98566.41
2018-03-07T10:55:11.286Z,98570.74
2018-03-07T10:56:13.816Z,98569.55
2018-03-07T10:57:16.346Z,98565.04
2018-03-07T10:58:18.941Z,98559.92
2018-03-07T10:59:21.511Z,98564.83
2018-03-07T11:00:29.736Z,98564.19
2018-03-07T11:01:32.270Z,98563.66
2018-03-07T11:02:34.824Z,98565.83
2018-03-07T11:03:37.402Z,98571.93
2018-03-07T11:04:39.927Z,98564.91
2018-03-07T11:05:42.444Z,98567.28
2018-03-07T11:06:44.996Z,98567.89
2018-03-07T11:07:47.521Z,98571.06
2018-03-07T11:08:50.060Z,98568.73
2018-03-07T11:09:52.586Z,98566.08
2018-03-07T11:10:55.103Z,98574.42
2018-03-07T11:11:57.656Z,98570.80
2018-03-07T11:13:00.532Z,98568.03
2018-03-07T11:14:03.069Z,98566.63
2018-03-07T11:15:05.612Z,98570.16
2018-03-07T11:16:08.146Z,98569.58
2018-03-07T11:17:10.769Z,98567.98
2018-03-07T11:18:13.448Z,98571.52
2018-03-07T11:19:16.057Z,98563.16
2018-03-07T11:20:18.701Z,98562.05
2018-03-07T11:21:21.237Z,98564.14
2018-03-07T11:22:24.523Z,98559.44
2018-03-07T11:23:27.050Z,98562.98
2018-03-07T11:24:29.605Z,98572.45
2018-03-07T11:25:32.157Z,98571.02
2018-03-07T11:26:34.742Z,98566.02
2018-03-07T11:27:37.278Z,98571.43
2018-03-07T11:28:39.790Z,98566.91
2018-03-07T11:29:42.440Z,98568.03
2018-03-07T11:30:44.994Z,98564.59
2018-03-07T11:31:47.536Z,98568.06
2018-03-07T11:32:50.077Z,98560.19
2018-03-07T11:33:56.968Z,98566.85
2018-03-07T11:34:59.891Z,98567.29
2018-03-07T11:36:02.463Z,98570.62
2018-03-07T11:37:04.967Z,98572.45
2018-03-07T11:38:07.494Z,98562.05
2018-03-07T11:39:10.028Z,98565.75
2018-03-07T11:40:12.545Z,98565.33
2018-03-07T11:41:15.067Z,98567.37
2018-03-07T11:42:17.582Z,98566.90
2018-03-07T11:43:20.136Z,98562.47
2018-03-07T11:44:22.661Z,98565.86
2018-03-07T11:45:25.194Z,98565.27
2018-03-07T11:46:27.707Z,98559.61
2018-03-07T11:47:30.222Z,98570.44
2018-03-07T11:48:32.745Z,98561.00
2018-03-07T11:49:35.267Z,98563.92
2018-03-07T11:50:37.833Z,98565.70
2018-03-07T11:51:40.370Z,98564.70
2018-03-07T11:52:42.882Z,98566.86
2018-03-07T11:53:45.520Z,98566.05
2018-03-07T11:54:48.027Z,98565.64
2018-03-07T11:55:50.538Z,98563.27
2018-03-07T11:56:53.064Z,98565.42
2018-03-07T11:57:55.573Z,98565.03
2018-03-07T11:58:58.116Z,98564.00
2018-03-07T12:00:00.629Z,98562.02
2018-03-07T12:01:03.151Z,98563.77
2018-03-07T12:02:05.669Z,98567.69
2018-03-07T12:03:08.201Z,98561.96
2018-03-07T12:04:10.725Z,98563.91
2018-03-07T12:05:13.252Z,98565.27
2018-03-07T12:06:15.793Z,98560.89
2018-03-07T12:07:18.384Z,98562.44
2018-03-07T12:08:20.919Z,98560.86
2018-03-07T12:09:23.446Z,98565.95
2018-03-07T12:10:25.982Z,98562.97
2018-03-07T12:11:28.520Z,98559.02
2018-03-07T12:12:31.042Z,98555.67
2018-03-07T12:13:33.550Z,98556.99
2018-03-07T12:14:36.085Z,98557.38
2018-03-07T12:15:38.598Z,98559.92
2018-03-07T12:16:41.115Z,98560.69
2018-03-07T12:17:43.644Z,98561.67
2018-03-07T12:18:46.542Z,98557.53
2018-03-07T12:19:49.077Z,98560.86
2018-03-07T12:20:51.600Z,98558.09
2018-03-07T12:21:54.159Z,98557.49
2018-03-07T12:22:56.673Z,98556.09
2018-03-07T12:23:59.193Z,98559.02
2018-03-07T12:25:01.726Z,98558.05
2018-03-07T12:26:04.235Z,98550.53
2018-03-07T12:27:06.746Z,98551.70
2018-03-07T12:28:09.277Z,98546.77